createdAt,value
2023-03-19T00:02:19.529Z,103.60
2023-03-19T00:04:47.654Z,108.70
2023-03-19T00:07:16.374Z,103.70
2023-03-19T00:09:44.858Z,113.40
2023-03-19T00:12:12.855Z,128.60
2023-03-19T00:14:40.897Z,132.30
2023-03-19T00:17:09.250Z,119.60
2023-03-19T00:19:37.310Z,114.90
2023-03-19T00:22:05.339Z,111.70
2023-03-19T00:24:33.408Z,87.90
2023-03-19T00:27:01.271Z,87.90
2023-03-19T00:29:29.437Z,90.80
2023-03-19T00:31:57.344Z,90.50
2023-03-19T00:34:25.237Z,83.70
2023-03-19T00:36:53.382Z,73.90
2023-03-19T00:39:22.015Z,77.60
2023-03-19T00:41:50.591Z,85.40
2023-03-19T00:44:19.212Z,78.60
2023-03-19T00:46:47.110Z,74.50
2023-03-19T00:49:14.916Z,82.60
2023-03-19T00:51:44.211Z,81.50
2023-03-19T00:54:12.660Z,86.00
2023-03-19T00:56:40.527Z,79.70
2023-03-19T00:59:08.465Z,78.70
2023-03-19T01:01:36.444Z,78.20
2023-03-19T01:04:04.444Z,69.50
2023-03-19T01:06:32.545Z,61.30
2023-03-19T01:09:00.695Z,59.30
2023-03-19T01:11:28.664Z,55.00
2023-03-19T01:13:56.640Z,53.00
2023-03-19T01:16:24.560Z,50.70
2023-03-19T01:18:53.458Z,45.70
2023-03-19T01:21:22.109Z,51.00
2023-03-19T01:23:52.070Z,57.10
2023-03-19T01:26:20.049Z,63.10
2023-03-19T01:28:47.894Z,63.10
2023-03-19T01:31:15.908Z,67.70
2023-03-19T01:33:43.980Z,73.90
2023-03-19T01:36:12.567Z,70.50
2023-03-19T01:38:40.558Z,66.50
2023-03-19T01:41:08.480Z,81.40
2023-03-19T01:43:36.759Z,83.30
2023-03-19T01:46:15.891Z,84.40
2023-03-19T01:48:43.797Z,87.70
2023-03-19T01:51:16.375Z,94.40
2023-03-19T01:53:47.752Z,82.10
2023-03-19T01:56:17.804Z,71.00
2023-03-19T01:58:46.801Z,62.80
2023-03-19T02:01:15.648Z,59.30
2023-03-19T02:03:43.549Z,60.10
2023-03-19T02:06:12.436Z,56.60
2023-03-19T02:08:41.077Z,51.20
2023-03-19T02:11:10.021Z,46.00
2023-03-19T02:13:38.135Z,49.10
2023-03-19T02:16:06.240Z,57.10
2023-03-19T02:18:34.492Z,58.70
2023-03-19T02:21:02.244Z,55.90
2023-03-19T02:23:49.679Z,51.90
2023-03-19T02:26:19.177Z,51.60
2023-03-19T02:28:48.051Z,48.00
2023-03-19T02:31:35.843Z,51.30
2023-03-19T02:34:05.665Z,52.40
2023-03-19T02:36:37.673Z,82.10
2023-03-19T02:39:07.537Z,79.70
2023-03-19T02:41:37.563Z,74.60
2023-03-19T02:44:06.744Z,67.80
2023-03-19T02:46:34.632Z,70.80
2023-03-19T02:49:02.597Z,65.00
2023-03-19T02:51:30.858Z,57.90
2023-03-19T02:54:00.997Z,50.70
2023-03-19T02:56:29.314Z,54.70
2023-03-19T02:58:57.191Z,53.20
2023-03-19T03:01:25.994Z,55.00
2023-03-19T03:03:53.837Z,41.40
2023-03-19T03:06:21.689Z,46.40
2023-03-19T03:08:49.557Z,40.80
2023-03-19T03:11:17.509Z,46.30
2023-03-19T03:13:45.349Z,48.20
2023-03-19T03:16:13.305Z,38.80
2023-03-19T03:18:41.567Z,39.10
2023-03-19T03:21:10.394Z,43.50
2023-03-19T03:23:38.233Z,46.00
2023-03-19T03:26:07.487Z,46.60
2023-03-19T03:28:35.609Z,45.60
2023-03-19T03:31:04.059Z,45.60
2023-03-19T03:33:31.965Z,45.90
2023-03-19T03:35:59.813Z,44.70
2023-03-19T03:38:27.862Z,43.30
2023-03-19T03:40:55.879Z,44.30
2023-03-19T03:43:23.762Z,40.80
2023-03-19T03:45:51.745Z,41.70
2023-03-19T03:48:19.507Z,43.70
2023-03-19T03:50:47.370Z,47.40
2023-03-19T03:53:16.169Z,43.60
2023-03-19T03:55:44.267Z,38.30
2023-03-19T03:58:13.284Z,38.30
2023-03-19T04:00:41.321Z,36.60
2023-03-19T04:03:09.140Z,38.10
2023-03-19T04:05:38.151Z,40.10
2023-03-19T04:08:07.491Z,42.00
2023-03-19T04:10:37.002Z,44.70
2023-03-19T04:13:07.535Z,45.50
2023-03-19T04:15:37.341Z,41.80
2023-03-19T04:18:05.222Z,46.30
2023-03-19T04:20:33.252Z,44.90
2023-03-19T04:23:02.272Z,45.50
2023-03-19T04:25:30.172Z,44.80
2023-03-19T04:27:58.402Z,45.00
2023-03-19T04:30:26.245Z,46.60
2023-03-19T04:32:54.146Z,46.70
2023-03-19T04:35:23.036Z,43.80
2023-03-19T04:37:50.889Z,47.60
2023-03-19T04:40:19.487Z,48.60
2023-03-19T04:42:47.311Z,46.00
2023-03-19T04:45:15.575Z,47.30
2023-03-19T04:47:43.437Z,45.10
2023-03-19T04:50:11.351Z,46.60
2023-03-19T04:52:39.524Z,43.90
2023-03-19T04:55:08.079Z,44.80
2023-03-19T04:57:37.017Z,43.80
2023-03-19T05:00:05.161Z,46.30
2023-03-19T05:02:33.093Z,46.30
2023-03-19T05:05:01.341Z,45.70
2023-03-19T05:07:29.466Z,48.90
2023-03-19T05:09:57.226Z,51.00
2023-03-19T05:12:26.164Z,59.90
2023-03-19T05:14:54.042Z,57.40
2023-03-19T05:17:22.154Z,62.70
2023-03-19T05:19:50.381Z,58.60
2023-03-19T05:22:18.374Z,53.00
2023-03-19T05:24:46.672Z,45.60
2023-03-19T05:27:14.606Z,41.90
2023-03-19T05:29:42.864Z,46.90
2023-03-19T05:32:10.715Z,65.10
2023-03-19T05:34:52.636Z,59.20
2023-03-19T05:37:20.409Z,60.80
2023-03-19T05:39:48.214Z,57.10
2023-03-19T05:42:16.592Z,53.30
2023-03-19T05:44:44.325Z,60.50
2023-03-19T05:47:12.328Z,68.30
2023-03-19T05:49:40.254Z,58.10
2023-03-19T05:52:08.449Z,52.80
2023-03-19T05:54:36.601Z,50.70
2023-03-19T05:57:05.234Z,51.40
2023-03-19T05:59:35.505Z,55.50
2023-03-19T06:02:03.286Z,54.70
2023-03-19T06:04:31.272Z,52.00
2023-03-19T06:06:59.483Z,47.50
2023-03-19T06:09:27.355Z,49.70
2023-03-19T06:12:12.305Z,48.10
2023-03-19T06:14:40.882Z,47.80
2023-03-19T06:17:09.806Z,46.90
2023-03-19T06:19:37.964Z,45.00
2023-03-19T06:22:06.024Z,54.10
2023-03-19T06:24:34.045Z,68.10
2023-03-19T06:27:01.904Z,63.60
2023-03-19T06:29:29.812Z,53.80
2023-03-19T06:31:58.286Z,44.60
2023-03-19T06:34:26.641Z,40.80
2023-03-19T06:36:54.624Z,38.00
2023-03-19T06:39:25.257Z,38.00
2023-03-19T06:41:53.435Z,37.60
2023-03-19T06:44:21.306Z,37.40
2023-03-19T06:46:49.247Z,37.20
2023-03-19T06:49:17.130Z,37.60
2023-03-19T06:51:45.076Z,35.80
2023-03-19T06:54:12.973Z,34.60
2023-03-19T06:56:40.840Z,34.00
2023-03-19T06:59:12.521Z,30.60
2023-03-19T07:01:41.675Z,29.40
2023-03-19T07:04:11.017Z,26.60
2023-03-19T07:06:39.006Z,28.10
2023-03-19T07:09:07.116Z,28.40
2023-03-19T07:11:35.980Z,27.30
2023-03-19T07:14:06.945Z,28.00
2023-03-19T07:16:36.681Z,27.60
2023-03-19T07:19:04.528Z,27.90
2023-03-19T07:21:33.850Z,26.10
2023-03-19T07:24:01.965Z,26.70
2023-03-19T07:26:30.039Z,24.10
2023-03-19T07:28:58.099Z,24.80
2023-03-19T07:31:26.578Z,25.10
2023-03-19T07:33:54.622Z,26.70
2023-03-19T07:36:22.723Z,24.70
2023-03-19T07:38:51.095Z,23.10
2023-03-19T07:41:19.017Z,22.10
2023-03-19T07:43:47.055Z,22.20
2023-03-19T07:46:16.574Z,22.80
2023-03-19T07:48:44.833Z,23.90
2023-03-19T07:51:13.002Z,23.00
2023-03-19T07:53:40.900Z,23.50
2023-03-19T07:56:08.813Z,23.20
2023-03-19T07:58:37.345Z,22.00
2023-03-19T08:01:06.589Z,24.40
2023-03-19T08:03:35.019Z,20.90
2023-03-19T08:06:04.375Z,19.90
2023-03-19T08:08:35.123Z,20.30
2023-03-19T08:11:03.700Z,18.40
2023-03-19T08:13:31.771Z,19.10
2023-03-19T08:15:59.810Z,20.10
2023-03-19T08:18:49.658Z,19.30
2023-03-19T08:21:18.644Z,19.30
2023-03-19T08:23:46.691Z,19.60
2023-03-19T08:26:15.050Z,18.20
2023-03-19T08:28:43.300Z,16.70
2023-03-19T08:31:12.758Z,16.30
2023-03-19T08:33:41.072Z,16.50
2023-03-19T08:36:10.775Z,17.00
2023-03-19T08:38:39.089Z,16.30
2023-03-19T08:41:09.384Z,16.90
2023-03-19T08:43:37.719Z,15.20
2023-03-19T08:46:10.025Z,15.90
2023-03-19T08:48:41.461Z,15.00
2023-03-19T08:51:10.011Z,14.70
2023-03-19T08:53:38.996Z,15.00
2023-03-19T08:56:08.098Z,15.30
2023-03-19T08:58:35.965Z,13.10
2023-03-19T09:01:05.470Z,12.70
2023-03-19T09:03:33.569Z,12.90
2023-03-19T09:06:02.699Z,12.50
2023-03-19T09:08:31.231Z,10.90
2023-03-19T09:10:59.342Z,12.70
2023-03-19T09:13:27.360Z,11.70
2023-03-19T09:15:55.316Z,11.60
2023-03-19T09:18:26.432Z,11.80
2023-03-19T09:20:55.292Z,10.70
2023-03-19T09:23:23.749Z,11.30
2023-03-19T09:25:51.733Z,11.70
2023-03-19T09:28:20.230Z,10.90
2023-03-19T09:30:49.298Z,11.50
2023-03-19T09:33:18.248Z,11.30
2023-03-19T09:35:54.002Z,11.50
2023-03-19T09:38:22.765Z,11.20
2023-03-19T09:41:11.482Z,12.00
2023-03-19T09:43:59.245Z,11.40
2023-03-19T09:46:40.134Z,11.20
2023-03-19T09:49:14.790Z,11.50
2023-03-19T09:51:58.051Z,11.00
2023-03-19T09:54:27.691Z,11.30
2023-03-19T09:56:55.960Z,11.60
2023-03-19T09:59:24.790Z,10.30
2023-03-19T10:02:05.380Z,11.10
2023-03-19T10:04:44.906Z,10.80
2023-03-19T10:07:24.354Z,11.50
2023-03-19T10:10:04.453Z,10.20
2023-03-19T10:12:51.237Z,10.50
2023-03-19T10:15:25.406Z,11.40
2023-03-19T10:17:55.954Z,10.70
2023-03-19T10:20:36.665Z,10.70
2023-03-19T10:23:24.401Z,11.10
2023-03-19T10:25:54.321Z,9.30
2023-03-19T10:28:22.960Z,11.10
2023-03-19T10:31:15.681Z,10.40
2023-03-19T10:33:46.166Z,10.70
2023-03-19T10:36:16.200Z,11.80
2023-03-19T10:38:44.686Z,11.60
2023-03-19T10:41:15.557Z,10.50
2023-03-19T10:43:43.991Z,11.50
2023-03-19T10:46:15.939Z,11.40
2023-03-19T10:48:45.793Z,10.00
2023-03-19T10:51:15.060Z,10.30
2023-03-19T10:53:43.064Z,11.80
2023-03-19T10:56:20.374Z,10.80
2023-03-19T10:59:14.776Z,10.20
2023-03-19T11:01:43.192Z,11.80
2023-03-19T11:04:17.337Z,12.40
2023-03-19T11:07:04.098Z,11.90
2023-03-19T11:09:37.119Z,14.10
2023-03-19T11:12:08.964Z,11.10
2023-03-19T11:14:41.161Z,11.60
2023-03-19T11:17:18.349Z,12.60
2023-03-19T11:19:54.172Z,12.10
2023-03-19T11:22:23.969Z,11.50
2023-03-19T11:24:56.670Z,12.20
2023-03-19T11:27:43.795Z,11.30
2023-03-19T11:30:17.992Z,11.90
2023-03-19T11:32:45.950Z,12.30
2023-03-19T11:35:29.647Z,11.80
2023-03-19T11:38:00.931Z,11.70
2023-03-19T11:40:31.548Z,10.30
2023-03-19T11:43:11.524Z,11.40
2023-03-19T11:45:41.984Z,10.60
2023-03-19T11:48:24.250Z,10.80
2023-03-19T11:50:58.371Z,11.60
2023-03-19T11:53:29.261Z,12.20
2023-03-19T11:56:01.987Z,12.10
2023-03-19T11:58:43.987Z,13.00
2023-03-19T12:01:31.882Z,11.00
2023-03-19T12:04:18.648Z,10.90
2023-03-19T12:06:49.837Z,10.70
2023-03-19T12:09:28.652Z,12.20
2023-03-19T12:12:17.046Z,12.60
2023-03-19T12:14:57.620Z,11.80
2023-03-19T12:17:52.317Z,10.80
2023-03-19T12:20:20.361Z,11.10
2023-03-19T12:23:13.048Z,11.00
2023-03-19T12:25:43.926Z,11.10
2023-03-19T12:28:12.218Z,11.90
2023-03-19T12:31:07.284Z,11.30
2023-03-19T12:33:51.413Z,11.30
2023-03-19T12:36:33.445Z,11.00
2023-03-19T12:39:17.636Z,11.00
2023-03-19T12:41:47.439Z,10.50
2023-03-19T12:44:22.658Z,10.40
2023-03-19T12:46:59.263Z,11.20
2023-03-19T12:51:55.769Z,12.40
2023-03-19T12:54:28.611Z,11.20
2023-03-19T12:57:00.287Z,11.50
2023-03-19T12:59:36.739Z,12.70
2023-03-19T13:02:09.766Z,12.00
2023-03-19T13:04:51.154Z,11.80
2023-03-19T13:07:21.408Z,11.80
2023-03-19T13:09:50.396Z,12.30
2023-03-19T13:12:25.288Z,11.70
2023-03-19T13:14:52.122Z,12.00
2023-03-19T13:17:21.247Z,12.20
2023-03-19T13:19:54.020Z,12.00
2023-03-19T13:22:22.673Z,12.60
2023-03-19T13:24:50.204Z,13.10
2023-03-19T13:27:25.830Z,12.00
2023-03-19T13:30:10.680Z,10.70
2023-03-19T13:32:48.124Z,10.20
2023-03-19T13:35:17.871Z,11.50
2023-03-19T13:37:44.354Z,11.70
2023-03-19T13:40:29.679Z,12.30
2023-03-19T13:42:57.129Z,12.50
2023-03-19T13:45:34.091Z,22.30
2023-03-19T13:48:24.407Z,17.50
2023-03-19T13:51:10.191Z,17.60
2023-03-19T13:53:38.624Z,14.80
2023-03-19T13:56:26.255Z,13.30
2023-03-19T13:59:14.749Z,13.60
2023-03-19T14:01:44.183Z,13.80
2023-03-19T14:04:20.506Z,12.70
2023-03-19T14:06:49.327Z,10.70
2023-03-19T14:09:33.550Z,11.40
2023-03-19T14:12:09.842Z,11.20
2023-03-19T14:14:45.418Z,11.30
2023-03-19T14:17:24.419Z,18.50
2023-03-19T14:19:52.447Z,11.70
2023-03-19T14:22:36.850Z,10.90
2023-03-19T14:25:13.992Z,13.50
2023-03-19T14:27:48.410Z,13.10
2023-03-19T14:30:25.747Z,12.40
2023-03-19T14:32:54.799Z,12.20
2023-03-19T14:35:25.050Z,12.50
2023-03-19T14:37:53.743Z,13.70
2023-03-19T14:40:40.208Z,17.10
2023-03-19T14:43:21.437Z,12.20
2023-03-19T14:45:51.149Z,11.90
2023-03-19T14:48:36.672Z,12.00
2023-03-19T14:51:28.526Z,12.70
2023-03-19T14:53:58.111Z,11.80
2023-03-19T14:56:32.521Z,11.20
2023-03-19T14:59:05.536Z,11.80
2023-03-19T15:01:33.191Z,11.10
2023-03-19T15:04:03.039Z,10.80
2023-03-19T15:06:37.179Z,11.80
2023-03-19T15:09:09.772Z,12.40
2023-03-19T15:11:39.341Z,12.80
2023-03-19T15:14:17.880Z,20.10
2023-03-19T15:16:44.529Z,19.90
2023-03-19T15:19:11.794Z,19.20
2023-03-19T15:21:38.712Z,13.90
2023-03-19T15:24:06.798Z,11.70
2023-03-19T15:26:34.699Z,10.90
2023-03-19T15:29:04.197Z,11.30
2023-03-19T15:31:54.840Z,10.20
2023-03-19T15:34:29.285Z,10.10
2023-03-19T15:37:02.189Z,10.60
2023-03-19T15:39:31.279Z,11.40
2023-03-19T15:42:00.926Z,11.40
2023-03-19T15:44:32.738Z,10.70
2023-03-19T15:47:01.105Z,11.30
2023-03-19T15:49:27.919Z,10.80
2023-03-19T15:51:56.570Z,9.40
2023-03-19T15:54:23.342Z,10.50
2023-03-19T15:56:50.866Z,10.00
2023-03-19T15:59:19.053Z,10.00
2023-03-19T16:01:45.725Z,10.50
2023-03-19T16:04:19.201Z,9.90
2023-03-19T16:06:47.560Z,11.10
2023-03-19T16:09:17.406Z,12.10
2023-03-19T16:11:45.380Z,12.90
2023-03-19T16:14:18.825Z,12.10
2023-03-19T16:16:47.356Z,13.00
2023-03-19T16:19:31.250Z,12.90
2023-03-19T16:21:58.971Z,14.40
2023-03-19T16:24:38.005Z,26.60
2023-03-19T16:27:07.984Z,25.90
2023-03-19T16:29:42.893Z,27.20
2023-03-19T16:32:09.428Z,26.70
2023-03-19T16:34:46.782Z,25.30
2023-03-19T16:37:22.891Z,27.60
2023-03-19T16:39:53.975Z,29.70
2023-03-19T16:42:26.792Z,28.00
2023-03-19T16:44:54.487Z,35.50
2023-03-19T16:47:21.868Z,65.20
2023-03-19T16:49:48.915Z,47.90
2023-03-19T16:52:22.350Z,30.60
2023-03-19T16:54:49.527Z,28.40
2023-03-19T16:57:16.889Z,25.50
2023-03-19T16:59:44.420Z,15.90
2023-03-19T17:02:18.550Z,13.50
2023-03-19T17:04:45.679Z,13.20
2023-03-19T17:07:13.405Z,13.00
2023-03-19T17:09:40.684Z,15.30
2023-03-19T17:12:12.339Z,16.50
2023-03-19T17:14:38.930Z,16.70
2023-03-19T17:17:12.861Z,15.40
2023-03-19T17:19:40.025Z,15.50
2023-03-19T17:22:13.994Z,17.70
2023-03-19T17:24:41.153Z,23.60
2023-03-19T17:27:08.832Z,26.20
2023-03-19T17:29:35.665Z,29.40
2023-03-19T17:32:41.220Z,31.10
2023-03-19T17:35:18.497Z,32.00
2023-03-19T17:37:45.495Z,63.40
2023-03-19T17:40:15.155Z,40.20
2023-03-19T17:42:41.992Z,34.00
2023-03-19T17:45:12.531Z,38.40
2023-03-19T17:47:40.458Z,39.80
2023-03-19T17:50:13.388Z,33.50
2023-03-19T17:52:45.673Z,34.10
2023-03-19T17:55:17.540Z,30.50
2023-03-19T17:57:44.238Z,29.40
2023-03-19T18:00:12.933Z,26.50
2023-03-19T18:02:40.714Z,24.50
2023-03-19T18:05:17.878Z,24.30
2023-03-19T18:07:47.370Z,24.10
2023-03-19T18:10:15.186Z,26.20
2023-03-19T18:12:41.910Z,27.50
2023-03-19T18:15:08.725Z,32.00
2023-03-19T18:17:37.508Z,33.00
2023-03-19T18:20:06.162Z,37.50
2023-03-19T18:22:32.870Z,39.60
2023-03-19T18:25:00.700Z,39.10
2023-03-19T18:27:28.300Z,42.60
2023-03-19T18:29:55.326Z,47.40
2023-03-19T18:32:28.094Z,46.10
2023-03-19T18:34:56.550Z,44.80
2023-03-19T18:37:23.253Z,42.60
2023-03-19T18:39:50.207Z,44.10
2023-03-19T18:42:17.174Z,40.00
2023-03-19T18:44:44.031Z,39.20
2023-03-19T18:47:15.051Z,38.00
2023-03-19T18:49:43.105Z,36.20
2023-03-19T18:52:14.214Z,38.80
2023-03-19T18:54:41.960Z,37.30
2023-03-19T18:57:11.764Z,35.60
2023-03-19T18:59:38.604Z,36.20
2023-03-19T19:02:19.325Z,38.90
2023-03-19T19:04:46.882Z,39.30
2023-03-19T19:07:14.837Z,36.00
2023-03-19T19:09:41.619Z,35.10
2023-03-19T19:12:10.778Z,39.90
2023-03-19T19:14:37.818Z,41.10
2023-03-19T19:17:05.800Z,35.50
2023-03-19T19:19:32.389Z,37.00
2023-03-19T19:21:59.000Z,40.30
2023-03-19T19:24:25.758Z,38.60
2023-03-19T19:26:53.356Z,41.70
2023-03-19T19:29:27.873Z,41.80
2023-03-19T19:31:54.919Z,40.90
2023-03-19T19:34:22.446Z,36.50
2023-03-19T19:36:50.425Z,36.90
2023-03-19T19:39:18.294Z,38.40
2023-03-19T19:41:46.060Z,36.60
2023-03-19T19:44:19.468Z,35.80
2023-03-19T19:46:47.259Z,39.10
2023-03-19T19:49:14.201Z,34.50
2023-03-19T19:51:40.856Z,34.10
2023-03-19T19:54:07.372Z,32.30
2023-03-19T19:56:34.291Z,29.60
2023-03-19T19:59:02.229Z,30.90
2023-03-19T20:01:29.026Z,29.60
2023-03-19T20:03:55.993Z,28.80
2023-03-19T20:07:00.117Z,31.20
2023-03-19T20:09:28.003Z,29.30
2023-03-19T20:11:55.523Z,27.60
2023-03-19T20:14:23.166Z,27.50
2023-03-19T20:16:49.921Z,27.90
2023-03-19T20:19:19.507Z,30.00
2023-03-19T20:21:46.041Z,25.90
2023-03-19T20:24:12.811Z,26.20
2023-03-19T20:26:41.836Z,27.60
2023-03-19T20:29:13.931Z,26.50
2023-03-19T20:31:40.731Z,26.20
2023-03-19T20:34:12.824Z,26.30
2023-03-19T20:36:40.719Z,25.20
2023-03-19T20:39:07.286Z,28.70
2023-03-19T20:41:33.984Z,33.10
2023-03-19T20:44:03.352Z,38.20
2023-03-19T20:46:32.322Z,45.30
2023-03-19T20:49:01.055Z,55.50
2023-03-19T20:51:31.999Z,66.60
2023-03-19T20:53:58.550Z,64.30
2023-03-19T20:56:25.281Z,69.80
2023-03-19T20:58:52.378Z,63.90
2023-03-19T21:01:19.050Z,67.70
2023-03-19T21:03:46.528Z,69.50
2023-03-19T21:06:17.617Z,99.70
2023-03-19T21:08:48.018Z,101.70
2023-03-19T21:11:19.030Z,81.30
2023-03-19T21:13:51.291Z,59.00
2023-03-19T21:16:19.159Z,59.90
2023-03-19T21:18:47.454Z,56.00
2023-03-19T21:21:17.353Z,51.30
2023-03-19T21:23:55.684Z,42.50
2023-03-19T21:26:22.731Z,31.80
2023-03-19T21:28:54.570Z,34.90
2023-03-19T21:31:21.218Z,32.40
2023-03-19T21:33:48.869Z,31.70
2023-03-19T21:36:16.378Z,32.10
2023-03-19T21:38:43.324Z,32.70
2023-03-19T21:41:24.388Z,31.60
2023-03-19T21:43:54.094Z,32.70
2023-03-19T21:46:24.820Z,31.70
2023-03-19T21:48:53.237Z,36.80
2023-03-19T21:51:19.919Z,33.70
2023-03-19T21:53:47.209Z,31.90
2023-03-19T21:56:24.972Z,33.80
2023-03-19T21:58:52.069Z,36.10
2023-03-19T22:01:28.619Z,47.30
2023-03-19T22:03:56.488Z,73.20
2023-03-19T22:06:23.744Z,93.00
2023-03-19T22:08:53.222Z,98.80
2023-03-19T22:11:28.052Z,117.70
2023-03-19T22:13:56.437Z,157.60
2023-03-19T22:16:24.109Z,164.80
2023-03-19T22:18:52.060Z,172.00
2023-03-19T22:21:19.920Z,166.60
2023-03-19T22:23:46.483Z,149.30
2023-03-19T22:26:33.328Z,149.00
2023-03-19T22:29:04.746Z,148.20
2023-03-19T22:31:32.075Z,120.60
2023-03-19T22:33:59.061Z,118.70
2023-03-19T22:36:25.507Z,127.00
2023-03-19T22:38:52.214Z,130.00
2023-03-19T22:41:25.762Z,96.90
2023-03-19T22:43:52.540Z,81.30
2023-03-19T22:46:19.398Z,86.30
2023-03-19T22:48:49.446Z,94.00
2023-03-19T22:51:20.865Z,69.30
2023-03-19T22:53:47.839Z,76.10
2023-03-19T22:56:15.760Z,71.00
2023-03-19T22:58:42.917Z,63.90
2023-03-19T23:01:20.506Z,66.10
2023-03-19T23:03:47.962Z,123.20
2023-03-19T23:06:29.175Z,140.90
2023-03-19T23:08:57.737Z,92.20
2023-03-19T23:11:24.542Z,114.50
2023-03-19T23:13:51.142Z,135.80
2023-03-19T23:16:22.922Z,130.20
2023-03-19T23:18:50.012Z,105.60
2023-03-19T23:21:17.542Z,95.90
2023-03-19T23:23:46.778Z,110.00
2023-03-19T23:26:23.689Z,104.40
2023-03-19T23:28:51.103Z,92.20
2023-03-19T23:31:18.513Z,93.90
2023-03-19T23:33:45.856Z,84.30
2023-03-19T23:36:12.505Z,84.40
2023-03-19T23:38:40.599Z,85.70
2023-03-19T23:41:08.833Z,76.00
2023-03-19T23:43:36.005Z,80.90
2023-03-19T23:46:02.858Z,109.30
2023-03-19T23:48:34.225Z,88.50
2023-03-19T23:51:00.882Z,59.60
2023-03-19T23:53:28.737Z,56.50
2023-03-19T23:55:57.892Z,56.50
2023-03-19T23:58:28.074Z,61.70
